createdAt,value
2022-11-05T00:01:42.499Z,16.80
2022-11-05T00:04:31.101Z,16.80
2022-11-05T00:07:21.699Z,16.80
2022-11-05T00:09:49.384Z,16.80
2022-11-05T00:12:35.341Z,16.80
2022-11-05T00:15:21.039Z,16.80
2022-11-05T00:17:48.374Z,16.80
2022-11-05T00:20:15.738Z,16.80
2022-11-05T00:23:01.733Z,16.80
2022-11-05T00:25:30.451Z,16.80
2022-11-05T00:28:01.115Z,16.80
2022-11-05T00:30:28.898Z,16.80
2022-11-05T00:33:00.556Z,16.80
2022-11-05T00:35:28.319Z,16.80
2022-11-05T00:37:55.574Z,16.80
2022-11-05T00:40:22.723Z,16.80
2022-11-05T00:43:09.131Z,16.80
2022-11-05T00:45:37.720Z,16.80
2022-11-05T00:48:23.799Z,16.80
2022-11-05T00:50:51.169Z,16.80
2022-11-05T00:53:18.554Z,16.80
2022-11-05T00:55:46.690Z,16.80
2022-11-05T00:58:15.266Z,16.80
2022-11-05T01:00:44.054Z,16.80
2022-11-05T01:03:13.367Z,16.80
2022-11-05T01:05:42.076Z,16.70
2022-11-05T01:08:09.879Z,16.70
2022-11-05T01:10:44.061Z,16.80
2022-11-05T01:13:13.386Z,16.80
2022-11-05T01:15:41.128Z,16.80
2022-11-05T01:18:08.538Z,16.80
2022-11-05T01:20:35.726Z,16.70
2022-11-05T01:23:04.629Z,16.70
2022-11-05T01:25:33.666Z,16.70
2022-11-05T01:28:01.432Z,16.70
2022-11-05T01:30:28.590Z,16.70
2022-11-05T01:32:55.834Z,16.70
2022-11-05T01:35:23.177Z,16.70
2022-11-05T01:37:50.443Z,16.70
2022-11-05T01:40:19.741Z,16.70
2022-11-05T01:42:47.097Z,16.70
2022-11-05T01:45:20.499Z,16.70
2022-11-05T01:47:50.819Z,16.70
2022-11-05T01:50:30.251Z,16.70
2022-11-05T01:53:08.498Z,16.70
2022-11-05T01:55:38.291Z,16.70
2022-11-05T01:58:07.195Z,16.70
2022-11-05T02:00:34.838Z,16.70
2022-11-05T02:03:02.080Z,16.70
2022-11-05T02:05:29.737Z,16.70
2022-11-05T02:07:57.168Z,16.70
2022-11-05T02:10:24.328Z,16.70
2022-11-05T02:12:51.842Z,16.70
2022-11-05T02:15:29.886Z,16.70
2022-11-05T02:18:07.085Z,16.70
2022-11-05T02:20:38.693Z,16.70
2022-11-05T02:23:13.749Z,16.70
2022-11-05T02:26:10.186Z,16.70
2022-11-05T02:28:54.896Z,16.70
2022-11-05T02:31:31.099Z,16.70
2022-11-05T02:33:58.118Z,16.70
2022-11-05T02:36:36.556Z,16.70
2022-11-05T02:39:11.531Z,16.70
2022-11-05T02:41:42.904Z,16.70
2022-11-05T02:44:28.672Z,16.70
2022-11-05T02:46:58.414Z,16.70
2022-11-05T02:49:31.698Z,16.70
2022-11-05T02:52:01.345Z,16.70
2022-11-05T02:54:47.377Z,16.70
2022-11-05T02:57:14.490Z,16.70
2022-11-05T02:59:41.566Z,16.70
2022-11-05T03:02:08.908Z,16.70
2022-11-05T03:04:36.107Z,16.70
2022-11-05T03:07:19.174Z,16.70
2022-11-05T03:10:04.256Z,16.70
2022-11-05T03:12:31.413Z,16.70
2022-11-05T03:15:04.670Z,16.70
2022-11-05T03:17:43.888Z,16.70
2022-11-05T03:20:17.108Z,16.70
2022-11-05T03:22:47.653Z,16.70
2022-11-05T03:25:20.523Z,16.70
2022-11-05T03:27:50.132Z,16.70
2022-11-05T03:30:18.435Z,16.70
2022-11-05T03:32:52.106Z,16.60
2022-11-05T03:35:27.896Z,16.70
2022-11-05T03:38:05.383Z,16.60
2022-11-05T03:40:34.568Z,16.70
2022-11-05T03:43:03.706Z,16.60
2022-11-05T03:45:33.151Z,16.60
2022-11-05T03:48:01.273Z,16.70
2022-11-05T03:50:28.368Z,16.70
2022-11-05T03:53:01.459Z,16.70
2022-11-05T03:55:39.051Z,16.70
2022-11-05T03:58:06.340Z,16.60
2022-11-05T04:00:33.508Z,16.60
2022-11-05T04:03:00.553Z,16.60
2022-11-05T04:05:27.632Z,16.60
2022-11-05T04:08:14.580Z,16.60
2022-11-05T04:11:06.392Z,16.60
2022-11-05T04:13:33.576Z,16.60
2022-11-05T04:16:19.128Z,16.60
2022-11-05T04:18:46.178Z,16.60
2022-11-05T04:21:31.750Z,16.60
2022-11-05T04:24:10.830Z,16.60
2022-11-05T04:26:39.284Z,16.60
2022-11-05T04:29:32.990Z,16.60
2022-11-05T04:32:00.035Z,16.60
2022-11-05T04:34:27.188Z,16.60
2022-11-05T04:36:54.319Z,16.60
2022-11-05T04:39:21.587Z,16.60
2022-11-05T04:41:48.829Z,16.60
2022-11-05T04:44:16.214Z,16.60
2022-11-05T04:46:43.525Z,16.60
2022-11-05T04:49:10.670Z,16.60
2022-11-05T04:51:37.664Z,16.60
2022-11-05T04:54:04.779Z,16.60
2022-11-05T04:56:31.895Z,16.60
2022-11-05T04:58:58.974Z,16.60
2022-11-05T05:01:26.099Z,16.60
2022-11-05T05:03:54.135Z,16.70
2022-11-05T05:06:21.643Z,16.60
2022-11-05T05:08:49.490Z,16.70
2022-11-05T05:11:17.490Z,16.70
2022-11-05T05:13:44.544Z,16.70
2022-11-05T05:16:17.315Z,16.70
2022-11-05T05:18:46.462Z,16.70
2022-11-05T05:21:32.572Z,16.70
2022-11-05T05:23:59.795Z,16.70
2022-11-05T05:26:26.948Z,16.80
2022-11-05T05:28:54.148Z,16.80
2022-11-05T05:31:21.923Z,16.70
2022-11-05T05:33:48.969Z,16.80
2022-11-05T05:36:16.076Z,16.80
2022-11-05T05:38:43.206Z,16.80
2022-11-05T05:41:10.390Z,16.80
2022-11-05T05:43:37.595Z,16.80
2022-11-05T05:46:05.527Z,16.80
2022-11-05T05:48:32.574Z,16.80
2022-11-05T05:51:00.727Z,16.80
2022-11-05T05:53:28.215Z,16.80
2022-11-05T05:55:55.857Z,16.80
2022-11-05T05:58:23.572Z,16.80
2022-11-05T06:00:50.654Z,16.80
2022-11-05T06:03:17.843Z,16.90
2022-11-05T06:05:44.951Z,16.90
2022-11-05T06:08:12.031Z,16.90
2022-11-05T06:10:39.078Z,16.90
2022-11-05T06:13:06.146Z,16.90
2022-11-05T06:15:35.916Z,16.90
2022-11-05T06:18:03.366Z,16.90
2022-11-05T06:20:30.342Z,16.90
2022-11-05T06:22:57.775Z,16.90
2022-11-05T06:25:25.162Z,16.80
2022-11-05T06:27:53.234Z,16.80
2022-11-05T06:30:21.694Z,16.80
2022-11-05T06:32:48.860Z,16.90
2022-11-05T06:35:16.217Z,16.80
2022-11-05T06:37:43.332Z,16.80
2022-11-05T06:40:10.604Z,16.80
2022-11-05T06:42:37.658Z,16.80
2022-11-05T06:45:04.943Z,16.80
2022-11-05T06:47:32.146Z,16.80
2022-11-05T06:49:59.296Z,16.80
2022-11-05T06:52:27.285Z,16.80
2022-11-05T06:54:54.367Z,16.80
2022-11-05T06:57:21.415Z,16.80
2022-11-05T06:59:48.435Z,16.80
2022-11-05T07:02:17.839Z,16.80
2022-11-05T07:04:44.945Z,16.80
2022-11-05T07:07:12.026Z,16.80
2022-11-05T07:09:40.521Z,16.80
2022-11-05T07:12:07.563Z,16.80
2022-11-05T07:14:34.569Z,16.80
2022-11-05T07:17:01.658Z,16.70
2022-11-05T07:19:28.669Z,16.70
2022-11-05T07:21:55.688Z,16.70
2022-11-05T07:24:22.665Z,16.80
2022-11-05T07:26:49.715Z,16.80
2022-11-05T07:29:16.763Z,16.80
2022-11-05T07:31:43.920Z,16.80
2022-11-05T07:34:10.938Z,16.80
2022-11-05T07:36:39.398Z,16.80
2022-11-05T07:39:06.578Z,16.90
2022-11-05T07:41:33.707Z,16.90
2022-11-05T07:44:00.822Z,17.00
2022-11-05T07:46:27.862Z,17.00
2022-11-05T07:48:54.897Z,17.00
2022-11-05T07:51:22.150Z,17.10
2022-11-05T07:53:49.407Z,17.10
2022-11-05T07:56:16.686Z,17.20
2022-11-05T07:58:44.027Z,17.20
2022-11-05T08:01:11.147Z,17.20
2022-11-05T08:03:38.304Z,17.20
2022-11-05T08:06:05.592Z,17.20
2022-11-05T08:08:32.761Z,17.20
2022-11-05T08:11:04.034Z,17.20
2022-11-05T08:13:31.311Z,17.20
2022-11-05T08:15:58.511Z,17.20
2022-11-05T08:18:31.303Z,17.20
2022-11-05T08:20:59.468Z,17.20
2022-11-05T08:23:27.184Z,17.20
2022-11-05T08:25:55.066Z,17.10
2022-11-05T08:28:22.584Z,17.10
2022-11-05T08:30:50.248Z,17.10
2022-11-05T08:33:17.883Z,17.10
2022-11-05T08:35:44.979Z,17.10
2022-11-05T08:38:15.609Z,17.10
2022-11-05T08:40:43.444Z,17.00
2022-11-05T08:43:11.728Z,17.00
2022-11-05T08:45:39.570Z,17.00
2022-11-05T08:48:08.275Z,17.00
2022-11-05T08:50:35.398Z,17.00
2022-11-05T08:53:02.753Z,17.00
2022-11-05T08:55:29.798Z,17.00
2022-11-05T08:58:01.149Z,17.00
2022-11-05T09:00:29.279Z,17.00
2022-11-05T09:02:58.756Z,17.00
2022-11-05T09:05:25.827Z,17.00
2022-11-05T09:07:57.903Z,17.00
2022-11-05T09:10:28.379Z,17.00
2022-11-05T09:12:55.563Z,17.00
2022-11-05T09:15:23.366Z,16.90
2022-11-05T09:17:50.695Z,16.90
2022-11-05T09:20:17.940Z,16.90
2022-11-05T09:22:46.169Z,17.00
2022-11-05T09:25:13.720Z,16.90
2022-11-05T09:27:40.725Z,16.90
2022-11-05T09:30:08.210Z,17.00
2022-11-05T09:32:35.302Z,17.00
2022-11-05T09:35:02.419Z,16.90
2022-11-05T09:37:29.830Z,16.90
2022-11-05T09:39:57.052Z,16.90
2022-11-05T09:42:54.970Z,16.90
2022-11-05T09:45:24.907Z,16.90
2022-11-05T09:47:53.580Z,16.90
2022-11-05T09:50:24.262Z,16.90
2022-11-05T09:52:51.523Z,16.90
2022-11-05T09:55:26.861Z,16.90
2022-11-05T09:58:03.861Z,16.90
2022-11-05T10:00:31.459Z,16.90
2022-11-05T10:03:00.874Z,16.90
2022-11-05T10:05:28.405Z,17.00
2022-11-05T10:08:00.098Z,17.10
2022-11-05T10:10:40.875Z,17.10
2022-11-05T10:13:19.714Z,17.10
2022-11-05T10:15:52.057Z,17.20
2022-11-05T10:18:21.617Z,17.20
2022-11-05T10:20:48.742Z,17.20
2022-11-05T10:23:17.110Z,17.20
2022-11-05T10:25:46.557Z,17.20
2022-11-05T10:28:21.596Z,17.20
2022-11-05T10:30:51.511Z,17.20
2022-11-05T10:33:27.769Z,17.20
2022-11-05T10:35:55.848Z,17.10
2022-11-05T10:38:22.865Z,17.10
2022-11-05T10:40:49.909Z,17.10
2022-11-05T10:43:20.866Z,17.10
2022-11-05T10:45:59.225Z,17.10
2022-11-05T10:48:32.374Z,17.10
2022-11-05T10:50:59.544Z,17.10
2022-11-05T10:53:31.979Z,17.10
2022-11-05T10:55:59.274Z,17.10
2022-11-05T10:58:29.039Z,17.10
2022-11-05T11:00:56.164Z,17.10
2022-11-05T11:03:34.216Z,17.10
2022-11-05T11:06:02.503Z,17.00
2022-11-05T11:08:30.647Z,17.00
2022-11-05T11:10:59.362Z,17.00
2022-11-05T11:13:27.632Z,17.10
2022-11-05T11:15:55.458Z,17.00
2022-11-05T11:18:27.673Z,17.00
2022-11-05T11:21:04.251Z,17.00
2022-11-05T11:23:36.258Z,17.00
2022-11-05T11:26:03.901Z,17.00
2022-11-05T11:28:33.319Z,17.10
2022-11-05T11:31:04.870Z,17.00
2022-11-05T11:33:33.015Z,17.00
2022-11-05T11:36:00.290Z,17.10
2022-11-05T11:38:31.491Z,17.00
2022-11-05T11:41:05.964Z,17.00
2022-11-05T11:43:34.962Z,17.00
2022-11-05T11:46:07.726Z,17.00
2022-11-05T11:48:40.058Z,17.00
2022-11-05T11:51:22.379Z,17.10
2022-11-05T11:53:49.820Z,17.10
2022-11-05T11:56:18.516Z,17.20
2022-11-05T11:58:49.956Z,17.20
2022-11-05T12:01:23.001Z,17.20
2022-11-05T12:04:08.774Z,17.20
2022-11-05T12:06:38.287Z,17.20
2022-11-05T12:09:21.298Z,17.30
2022-11-05T12:11:58.586Z,17.30
2022-11-05T12:14:46.666Z,17.30
2022-11-05T12:17:25.774Z,17.30
2022-11-05T12:19:59.850Z,17.30
2022-11-05T12:22:47.190Z,17.40
2022-11-05T12:25:28.070Z,17.40
2022-11-05T12:28:17.106Z,17.40
2022-11-05T12:30:53.097Z,17.50
2022-11-05T12:33:32.523Z,17.50
2022-11-05T12:36:05.329Z,17.50
2022-11-05T12:38:51.176Z,17.50
2022-11-05T12:41:41.057Z,17.50
2022-11-05T12:44:08.041Z,17.50
2022-11-05T12:46:43.147Z,17.60
2022-11-05T12:49:23.234Z,17.60
2022-11-05T12:51:56.456Z,17.60
2022-11-05T12:54:23.640Z,17.50
2022-11-05T12:56:54.233Z,17.50
2022-11-05T12:59:25.403Z,17.50
2022-11-05T13:01:55.021Z,17.50
2022-11-05T13:04:37.775Z,17.50
2022-11-05T13:07:07.730Z,17.50
2022-11-05T13:09:37.982Z,17.50
2022-11-05T13:12:08.094Z,17.40
2022-11-05T13:14:38.791Z,17.40
2022-11-05T13:17:10.810Z,17.40
2022-11-05T13:19:56.530Z,17.40
2022-11-05T13:22:37.259Z,17.40
2022-11-05T13:25:25.217Z,17.40
2022-11-05T13:28:02.322Z,17.40
2022-11-05T13:30:30.603Z,17.40
2022-11-05T13:33:03.476Z,17.40
2022-11-05T13:35:32.762Z,17.40
2022-11-05T13:38:22.505Z,17.30
2022-11-05T13:40:49.615Z,17.30
2022-11-05T13:43:19.601Z,17.30
2022-11-05T13:45:46.697Z,17.30
2022-11-05T13:48:33.945Z,17.30
2022-11-05T13:51:03.696Z,17.30
2022-11-05T13:53:33.834Z,17.20
2022-11-05T13:56:10.106Z,17.20
2022-11-05T13:58:37.204Z,17.20
2022-11-05T14:01:39.950Z,17.20
2022-11-05T14:04:13.512Z,17.20
2022-11-05T14:06:40.700Z,17.20
2022-11-05T14:09:09.797Z,17.20
2022-11-05T14:11:38.359Z,17.20
2022-11-05T14:14:07.882Z,17.20
2022-11-05T14:16:55.181Z,17.10
2022-11-05T14:19:30.132Z,17.20
2022-11-05T14:21:57.695Z,17.10
2022-11-05T14:24:26.276Z,17.20
2022-11-05T14:27:13.277Z,17.30
2022-11-05T14:29:44.285Z,17.30
2022-11-05T14:32:17.076Z,17.40
2022-11-05T14:34:54.115Z,17.40
2022-11-05T14:37:22.518Z,17.50
2022-11-05T14:39:49.823Z,17.50
2022-11-05T14:42:27.946Z,17.60
2022-11-05T14:44:55.007Z,17.60
2022-11-05T14:47:23.416Z,17.60
2022-11-05T14:50:11.462Z,17.60
2022-11-05T14:52:40.014Z,17.60
2022-11-05T14:55:22.725Z,17.70
2022-11-05T14:57:52.713Z,17.70
2022-11-05T15:00:28.971Z,17.60
2022-11-05T15:02:57.715Z,17.60
2022-11-05T15:05:39.838Z,17.60
2022-11-05T15:08:25.461Z,17.60
2022-11-05T15:10:58.207Z,17.60
2022-11-05T15:13:34.228Z,17.60
2022-11-05T15:16:03.075Z,17.60
2022-11-05T15:18:33.234Z,17.50
2022-11-05T15:21:01.830Z,17.50
2022-11-05T15:23:34.602Z,17.50
2022-11-05T15:26:04.411Z,17.50
2022-11-05T15:28:31.464Z,17.40
2022-11-05T15:31:02.713Z,17.40
2022-11-05T15:33:30.071Z,17.40
2022-11-05T15:36:08.317Z,17.40
2022-11-05T15:38:35.811Z,17.40
2022-11-05T15:41:12.940Z,17.40
2022-11-05T15:43:47.908Z,17.40
2022-11-05T15:46:17.009Z,17.40
2022-11-05T15:48:49.681Z,17.30
2022-11-05T15:51:17.101Z,17.30
2022-11-05T15:54:08.243Z,17.30
2022-11-05T15:56:32.801Z,17.30
2022-11-05T15:59:04.894Z,17.30
2022-11-05T16:01:46.921Z,17.30
2022-11-05T16:04:14.068Z,17.30
2022-11-05T16:06:42.080Z,17.30
2022-11-05T16:09:20.706Z,17.30
2022-11-05T16:11:47.712Z,17.20
2022-11-05T16:14:16.893Z,17.30
2022-11-05T16:16:44.651Z,17.30
2022-11-05T16:19:38.715Z,17.30
2022-11-05T16:22:07.795Z,17.20
2022-11-05T16:24:34.965Z,17.20
2022-11-05T16:27:04.009Z,17.20
2022-11-05T16:29:35.199Z,17.20
2022-11-05T16:32:04.051Z,17.20
2022-11-05T16:34:37.758Z,17.20
2022-11-05T16:37:05.838Z,17.20
2022-11-05T16:39:33.241Z,17.20
2022-11-05T16:42:00.266Z,17.20
2022-11-05T16:44:27.456Z,17.20
2022-11-05T16:46:54.520Z,17.20
2022-11-05T16:49:22.129Z,17.20
2022-11-05T16:51:49.101Z,17.20
2022-11-05T16:54:16.122Z,17.20
2022-11-05T16:56:43.860Z,17.20
2022-11-05T16:59:13.983Z,17.20
2022-11-05T17:01:42.134Z,17.20
2022-11-05T17:04:10.053Z,17.20
2022-11-05T17:06:37.073Z,17.20
2022-11-05T17:09:04.087Z,17.20
2022-11-05T17:11:31.134Z,17.20
2022-11-05T17:13:58.263Z,17.10
2022-11-05T17:16:26.688Z,17.10
2022-11-05T17:18:53.698Z,17.10
2022-11-05T17:21:20.681Z,17.10
2022-11-05T17:23:47.671Z,17.10
2022-11-05T17:26:14.819Z,17.10
2022-11-05T17:28:41.833Z,17.10
2022-11-05T17:31:11.298Z,17.10
2022-11-05T17:33:38.731Z,17.10
2022-11-05T17:36:13.375Z,17.10
2022-11-05T17:38:40.474Z,17.10
2022-11-05T17:41:11.449Z,17.10
2022-11-05T17:43:38.720Z,17.10
2022-11-05T17:46:06.840Z,17.10
2022-11-05T17:48:33.895Z,17.10
2022-11-05T17:51:01.547Z,17.10
2022-11-05T17:53:28.706Z,17.00
2022-11-05T17:55:55.696Z,17.10
2022-11-05T17:58:22.735Z,17.00
2022-11-05T18:00:49.791Z,17.00
2022-11-05T18:03:16.917Z,17.00
2022-11-05T18:05:44.184Z,17.00
2022-11-05T18:08:12.370Z,17.00
2022-11-05T18:10:40.572Z,17.00
2022-11-05T18:13:07.783Z,17.00
2022-11-05T18:15:36.292Z,17.00
2022-11-05T18:18:03.415Z,17.00
2022-11-05T18:20:30.536Z,17.00
2022-11-05T18:22:57.561Z,17.00
2022-11-05T18:25:24.636Z,17.00
2022-11-05T18:27:51.737Z,17.00
2022-11-05T18:30:18.851Z,17.00
2022-11-05T18:32:45.960Z,16.90
2022-11-05T18:35:13.437Z,17.00
2022-11-05T18:37:40.677Z,16.90
2022-11-05T18:40:08.208Z,17.00
2022-11-05T18:42:35.286Z,16.90
2022-11-05T18:45:02.738Z,16.90
2022-11-05T18:47:32.378Z,16.90
2022-11-05T18:49:59.955Z,16.90
2022-11-05T18:52:28.318Z,16.90
2022-11-05T18:54:55.342Z,16.90
2022-11-05T18:57:22.369Z,16.90
2022-11-05T18:59:49.363Z,16.90
2022-11-05T19:02:16.716Z,16.90
2022-11-05T19:05:06.631Z,16.90
2022-11-05T19:07:32.098Z,16.90
2022-11-05T19:09:59.140Z,17.00
2022-11-05T19:12:26.287Z,17.10
2022-11-05T19:14:57.958Z,17.10
2022-11-05T19:17:28.177Z,17.10
2022-11-05T19:19:55.382Z,17.20
2022-11-05T19:22:22.455Z,17.20
2022-11-05T19:24:49.584Z,17.20
2022-11-05T19:27:16.703Z,17.20
2022-11-05T19:29:43.742Z,17.20
2022-11-05T19:32:10.916Z,17.20
2022-11-05T19:34:38.004Z,17.20
2022-11-05T19:37:08.023Z,17.20
2022-11-05T19:39:35.599Z,17.20
2022-11-05T19:42:03.634Z,17.20
2022-11-05T19:44:31.426Z,17.20
2022-11-05T19:46:58.582Z,17.10
2022-11-05T19:49:28.044Z,17.10
2022-11-05T19:51:55.150Z,17.10
2022-11-05T19:54:22.263Z,17.10
2022-11-05T19:56:49.743Z,17.10
2022-11-05T19:59:16.925Z,17.10
2022-11-05T20:01:44.712Z,17.10
2022-11-05T20:04:12.000Z,17.10
2022-11-05T20:06:40.704Z,17.10
2022-11-05T20:09:25.253Z,17.00
2022-11-05T20:11:56.588Z,17.00
2022-11-05T20:14:25.084Z,17.00
2022-11-05T20:16:52.599Z,17.00
2022-11-05T20:19:20.592Z,17.00
2022-11-05T20:21:48.077Z,17.00
2022-11-05T20:24:22.438Z,17.00
2022-11-05T20:26:51.315Z,17.00
2022-11-05T20:29:18.519Z,17.00
2022-11-05T20:31:45.723Z,17.00
2022-11-05T20:34:12.762Z,17.00
2022-11-05T20:36:39.891Z,16.90
2022-11-05T20:39:07.013Z,16.90
2022-11-05T20:41:34.077Z,16.90
2022-11-05T20:44:01.208Z,16.90
2022-11-05T20:46:28.420Z,16.90
2022-11-05T20:48:55.814Z,16.90
2022-11-05T20:51:24.155Z,16.90
2022-11-05T20:53:54.525Z,16.90
2022-11-05T20:56:23.028Z,16.90
2022-11-05T20:58:50.386Z,16.80
2022-11-05T21:01:18.426Z,16.80
2022-11-05T21:03:46.296Z,16.90
2022-11-05T21:06:13.586Z,16.80
2022-11-05T21:08:40.953Z,16.80
2022-11-05T21:11:08.595Z,16.80
2022-11-05T21:13:35.938Z,16.80
2022-11-05T21:16:04.873Z,16.80
2022-11-05T21:18:32.839Z,16.80
2022-11-05T21:21:00.368Z,16.80
2022-11-05T21:23:28.364Z,16.80
2022-11-05T21:25:55.678Z,16.80
2022-11-05T21:28:22.847Z,16.80
2022-11-05T21:30:49.929Z,16.80
2022-11-05T21:33:18.001Z,16.80
2022-11-05T21:35:47.791Z,16.80
2022-11-05T21:38:16.019Z,16.80
2022-11-05T21:40:43.402Z,16.80
2022-11-05T21:43:10.627Z,16.80
2022-11-05T21:45:38.904Z,16.70
2022-11-05T21:48:06.414Z,16.70
2022-11-05T21:50:52.475Z,16.70
2022-11-05T21:53:38.176Z,16.70
2022-11-05T21:56:24.715Z,16.70
2022-11-05T21:59:10.267Z,16.70
2022-11-05T22:01:37.453Z,16.70
2022-11-05T22:04:04.600Z,16.70
2022-11-05T22:06:34.503Z,16.70
2022-11-05T22:09:01.581Z,16.70
2022-11-05T22:11:29.374Z,16.70
2022-11-05T22:13:56.414Z,16.70
2022-11-05T22:16:23.489Z,16.60
2022-11-05T22:18:50.533Z,16.70
2022-11-05T22:21:18.260Z,16.70
2022-11-05T22:23:45.417Z,16.60
2022-11-05T22:26:12.598Z,16.60
2022-11-05T22:28:39.710Z,16.70
2022-11-05T22:31:14.146Z,16.70
2022-11-05T22:33:41.749Z,16.60
2022-11-05T22:36:09.321Z,16.60
2022-11-05T22:38:36.356Z,16.60
2022-11-05T22:41:08.031Z,16.60
2022-11-05T22:43:35.286Z,16.60
2022-11-05T22:46:05.762Z,16.60
2022-11-05T22:48:34.338Z,16.60
2022-11-05T22:51:05.578Z,16.60
2022-11-05T22:53:34.145Z,16.60
2022-11-05T22:56:05.501Z,16.60
2022-11-05T22:58:32.803Z,16.60
2022-11-05T23:01:00.104Z,16.60
2022-11-05T23:03:28.484Z,16.60
2022-11-05T23:05:58.662Z,16.60
2022-11-05T23:08:44.456Z,16.50
2022-11-05T23:11:38.439Z,16.60
2022-11-05T23:14:06.131Z,16.50
2022-11-05T23:16:51.990Z,16.50
2022-11-05T23:19:37.568Z,16.50
2022-11-05T23:22:24.136Z,16.50
2022-11-05T23:24:51.211Z,16.50
2022-11-05T23:27:18.252Z,16.50
2022-11-05T23:29:45.415Z,16.50
2022-11-05T23:32:24.644Z,16.50
2022-11-05T23:34:52.503Z,16.50
2022-11-05T23:37:38.973Z,16.50
2022-11-05T23:40:07.294Z,16.50
2022-11-05T23:42:53.421Z,16.50
2022-11-05T23:45:39.298Z,16.50
2022-11-05T23:48:17.095Z,16.50
2022-11-05T23:50:45.917Z,16.50
2022-11-05T23:53:13.014Z,16.50
2022-11-05T23:55:40.390Z,16.50
2022-11-05T23:58:07.891Z,16.40
